Time;durP1;ratioP1;P1;durP2;ratioP2;P2;SDS_P1;SDS_P2;PMS_P1;PMS_P2;Temp;Humidity;BMP_temperature;BMP_pressure;BME280_temperature;BME280_humidity;BME280_pressure;Samples;Min_cycle;Max_cycle;Signal;HPM_P1;HPM_P2
2023/12/30 00:01:43;;;;;;;14.37;2.60;;;5.20;80.00;;;;;;5017959;28;20056;-71
2023/12/30 00:04:08;;;;;;;13.43;2.30;;;5.20;80.10;;;;;;5024085;28;20049;-72
2023/12/30 00:06:34;;;;;;;14.97;2.47;;;5.20;80.10;;;;;;5017524;28;20073;-72
2023/12/30 00:09:00;;;;;;;16.60;2.73;;;5.20;80.40;;;;;;5025595;28;20082;-71
2023/12/30 00:11:26;;;;;;;16.43;2.67;;;5.20;80.30;;;;;;5019199;28;20077;-72
2023/12/30 00:13:51;;;;;;;16.23;3.20;;;5.20;80.30;;;;;;5007855;28;20037;-71
2023/12/30 00:16:17;;;;;;;15.83;3.60;;;5.20;80.30;;;;;;5024843;28;20064;-72
2023/12/30 00:18:43;;;;;;;22.63;3.40;;;5.20;80.30;;;;;;5025278;28;20305;-71
2023/12/30 00:21:08;;;;;;;21.03;2.97;;;5.30;80.10;;;;;;5024328;28;20061;-71
2023/12/30 00:23:35;;;;;;;14.70;2.37;;;5.30;80.00;;;;;;5027008;28;20059;-71
2023/12/30 00:26:01;;;;;;;16.20;2.47;;;5.30;79.70;;;;;;5019363;28;20120;-71
2023/12/30 00:28:27;;;;;;;18.97;2.87;;;5.30;79.70;;;;;;5015640;28;20069;-71
2023/12/30 00:30:52;;;;;;;13.93;2.67;;;5.30;79.70;;;;;;5011340;28;20041;-71
2023/12/30 00:33:18;;;;;;;17.47;2.63;;;5.30;79.60;;;;;;5014150;28;20145;-71
2023/12/30 00:35:44;;;;;;;20.10;3.13;;;5.30;79.50;;;;;;5024087;28;20771;-72
2023/12/30 00:38:09;;;;;;;16.00;3.00;;;5.30;79.40;;;;;;5012417;28;20100;-72
2023/12/30 00:40:35;;;;;;;18.10;2.70;;;5.30;79.30;;;;;;5015236;28;20048;-71
2023/12/30 00:43:01;;;;;;;18.67;2.70;;;5.30;79.20;;;;;;5016032;28;20393;-71
2023/12/30 00:45:26;;;;;;;15.50;1.93;;;5.30;79.10;;;;;;5005978;28;20131;-73
2023/12/30 00:47:52;;;;;;;18.93;2.90;;;5.30;79.00;;;;;;5025640;28;20052;-71
2023/12/30 00:50:18;;;;;;;16.20;2.20;;;5.30;78.70;;;;;;5010895;28;20050;-73
2023/12/30 00:52:43;;;;;;;16.73;2.83;;;5.30;78.70;;;;;;5016221;28;20054;-71
2023/12/30 00:55:09;;;;;;;11.30;2.20;;;5.30;78.70;;;;;;5025474;28;20071;-72
2023/12/30 00:57:35;;;;;;;9.73;2.67;;;5.30;78.60;;;;;;5026154;28;20091;-71
2023/12/30 01:00:00;;;;;;;16.87;2.43;;;5.40;78.50;;;;;;5015873;28;20088;-71
2023/12/30 01:02:26;;;;;;;11.50;2.30;;;5.30;78.40;;;;;;5020282;28;20045;-74
2023/12/30 01:04:51;;;;;;;15.67;3.00;;;5.40;78.20;;;;;;5023799;28;20493;-72
2023/12/30 01:07:17;;;;;;;13.50;2.30;;;5.40;78.10;;;;;;5024346;28;20049;-71
2023/12/30 01:09:43;;;;;;;13.83;2.83;;;5.40;78.10;;;;;;5026041;28;20076;-72
2023/12/30 01:12:08;;;;;;;15.27;2.77;;;5.40;78.00;;;;;;5026659;28;20100;-71
2023/12/30 01:14:34;;;;;;;21.27;3.03;;;5.30;78.00;;;;;;5030468;28;20092;-72
2023/12/30 01:17:00;;;;;;;13.73;2.50;;;5.30;78.00;;;;;;5018081;28;20100;-74
2023/12/30 01:19:26;;;;;;;16.50;2.30;;;5.30;77.80;;;;;;5044472;28;20060;-71
2023/12/30 01:21:51;;;;;;;16.63;2.80;;;5.30;77.80;;;;;;5010106;28;20121;-71
2023/12/30 01:24:17;;;;;;;10.00;2.30;;;5.40;77.60;;;;;;5028229;28;20093;-73
2023/12/30 01:26:43;;;;;;;15.33;2.53;;;5.30;77.50;;;;;;5023901;28;20081;-72
2023/12/30 01:29:08;;;;;;;16.27;2.57;;;5.30;77.50;;;;;;5019513;28;20114;-71
2023/12/30 01:31:34;;;;;;;14.43;2.33;;;5.30;77.30;;;;;;5003686;28;20050;-71
2023/12/30 01:34:00;;;;;;;13.17;2.30;;;5.40;77.20;;;;;;5022321;28;20521;-71
2023/12/30 01:36:26;;;;;;;13.43;2.23;;;5.30;77.20;;;;;;5015436;28;20334;-73
2023/12/30 01:38:52;;;;;;;20.13;2.53;;;5.30;76.90;;;;;;5028319;28;20453;-70
2023/12/30 01:41:19;;;;;;;15.47;2.67;;;5.40;76.60;;;;;;5010614;28;20046;-72
2023/12/30 01:43:44;;;;;;;11.83;2.33;;;5.50;76.50;;;;;;5017174;28;20195;-71
2023/12/30 01:46:12;;;;;;;17.50;3.03;;;5.50;76.30;;;;;;5008024;28;20050;-72
2023/12/30 01:48:38;;;;;;;10.17;2.23;;;5.50;76.20;;;;;;5010019;28;20721;-73
2023/12/30 01:51:07;;;;;;;13.90;2.70;;;5.50;75.90;;;;;;5026286;28;20121;-71
2023/12/30 01:53:38;;;;;;;16.57;2.97;;;5.50;75.90;;;;;;5019474;28;20111;-71
2023/12/30 01:56:05;;;;;;;13.65;2.88;;;5.60;75.90;;;;;;5018987;28;20096;-71
2023/12/30 01:58:32;;;;;;;11.60;2.90;;;5.60;75.50;;;;;;5013678;28;20128;-72
2023/12/30 02:01:00;;;;;;;17.00;2.67;;;5.60;75.50;;;;;;5008043;28;20448;-74
2023/12/30 02:03:26;;;;;;;19.47;2.90;;;5.70;75.40;;;;;;5027473;28;20096;-72
2023/12/30 02:05:52;;;;;;;19.87;2.90;;;5.70;75.10;;;;;;5023520;28;20057;-70
2023/12/30 02:08:18;;;;;;;18.53;3.13;;;5.70;75.20;;;;;;5017839;28;20353;-72
2023/12/30 02:10:44;;;;;;;18.57;2.87;;;5.80;75.00;;;;;;5011409;28;20056;-73
2023/12/30 02:13:10;;;;;;;16.33;2.50;;;5.80;74.80;;;;;;5008909;28;20057;-74
2023/12/30 02:15:36;;;;;;;19.17;3.13;;;5.80;74.70;;;;;;5027826;28;20569;-71
2023/12/30 02:18:02;;;;;;;16.27;3.47;;;5.80;74.80;;;;;;5019770;28;20560;-71
2023/12/30 02:20:30;;;;;;;20.97;3.17;;;5.80;74.90;;;;;;5012224;28;20533;-72
2023/12/30 02:22:56;;;;;;;19.03;2.97;;;5.90;74.90;;;;;;5015707;28;20095;-72
2023/12/30 02:25:22;;;;;;;15.33;3.07;;;5.90;74.90;;;;;;5026512;28;20489;-74
2023/12/30 02:27:48;;;;;;;20.33;3.10;;;5.90;75.20;;;;;;5028205;28;20053;-72
2023/12/30 02:30:14;;;;;;;15.77;3.53;;;5.90;75.10;;;;;;5021799;28;20417;-73
2023/12/30 02:32:40;;;;;;;16.40;2.70;;;5.90;75.20;;;;;;5020896;28;20123;-72
2023/12/30 02:35:06;;;;;;;13.87;2.90;;;5.90;75.20;;;;;;5019781;28;20498;-73
2023/12/30 02:37:32;;;;;;;17.67;2.90;;;6.00;75.10;;;;;;5012247;28;20049;-71
2023/12/30 02:39:58;;;;;;;20.47;3.23;;;6.00;75.20;;;;;;5027475;28;20075;-72
2023/12/30 02:42:23;;;;;;;17.37;3.00;;;6.00;75.20;;;;;;5016145;28;20120;-71
2023/12/30 02:44:49;;;;;;;17.33;3.77;;;6.00;75.10;;;;;;5022143;28;20049;-71
2023/12/30 02:47:15;;;;;;;22.40;3.00;;;6.00;75.10;;;;;;5018825;28;20413;-72
2023/12/30 02:49:45;;;;;;;20.63;3.37;;;6.00;75.00;;;;;;5012775;28;20457;-72
2023/12/30 02:52:11;;;;;;;15.07;3.33;;;6.10;74.90;;;;;;5026908;28;20045;-71
2023/12/30 02:54:37;;;;;;;13.17;3.13;;;6.10;75.00;;;;;;5028235;28;20437;-73
2023/12/30 02:57:03;;;;;;;13.20;2.80;;;6.20;74.80;;;;;;5010608;28;20054;-72
2023/12/30 02:59:30;;;;;;;19.00;3.27;;;6.20;74.70;;;;;;5016167;28;20129;-72
2023/12/30 03:01:56;;;;;;;16.93;3.20;;;6.20;74.50;;;;;;5024323;28;20628;-74
2023/12/30 03:04:22;;;;;;;22.77;3.30;;;6.20;74.30;;;;;;5013057;28;20129;-72
2023/12/30 03:06:48;;;;;;;14.93;2.60;;;6.30;74.10;;;;;;5027457;28;20354;-72
2023/12/30 03:09:14;;;;;;;15.87;3.10;;;6.30;74.20;;;;;;5027995;28;22048;-71
2023/12/30 03:11:40;;;;;;;26.13;3.77;;;6.30;74.20;;;;;;5025806;28;20045;-71
2023/12/30 03:14:06;;;;;;;19.80;3.53;;;6.30;74.10;;;;;;5021453;28;20038;-71
2023/12/30 03:16:32;;;;;;;17.70;3.43;;;6.30;73.90;;;;;;5008839;28;20552;-71
2023/12/30 03:18:58;;;;;;;15.03;2.80;;;6.30;73.80;;;;;;5010274;28;20057;-71
2023/12/30 03:21:24;;;;;;;14.80;3.23;;;6.30;73.80;;;;;;5008061;28;20054;-72
2023/12/30 03:23:50;;;;;;;17.13;2.63;;;6.30;73.90;;;;;;5012385;28;20053;-72
2023/12/30 03:26:16;;;;;;;17.67;3.10;;;6.30;73.60;;;;;;5007892;28;20048;-71
2023/12/30 03:28:43;;;;;;;18.57;3.23;;;6.40;73.40;;;;;;5010125;28;20125;-71
2023/12/30 03:31:19;;;;;;;21.57;3.10;;;6.40;73.40;;;;;;5006310;28;20319;-71
2023/12/30 03:33:45;;;;;;;17.47;3.60;;;6.40;73.50;;;;;;5012249;28;20056;-72
2023/12/30 03:36:11;;;;;;;17.20;3.30;;;6.40;73.00;;;;;;5020223;28;20057;-71
2023/12/30 03:38:36;;;;;;;17.17;3.63;;;6.40;73.10;;;;;;5018698;28;20549;-72
2023/12/30 03:41:02;;;;;;;21.47;3.17;;;6.40;73.30;;;;;;5010667;28;20399;-72
2023/12/30 03:43:28;;;;;;;17.37;2.87;;;6.40;73.30;;;;;;5012784;28;20176;-72
2023/12/30 03:45:53;;;;;;;18.33;3.03;;;6.40;73.10;;;;;;5007193;28;20061;-71
2023/12/30 03:48:19;;;;;;;17.33;3.17;;;6.30;73.00;;;;;;5021639;28;20042;-71
2023/12/30 03:50:45;;;;;;;16.83;3.50;;;6.30;73.20;;;;;;5016806;28;20054;-71
2023/12/30 03:53:11;;;;;;;20.47;3.57;;;6.30;73.20;;;;;;5011258;28;20052;-71
2023/12/30 03:55:36;;;;;;;18.07;3.53;;;6.30;73.60;;;;;;5024628;28;20047;-72
2023/12/30 03:58:02;;;;;;;19.93;3.43;;;6.30;73.70;;;;;;5024910;28;20049;-71
2023/12/30 04:00:28;;;;;;;19.83;3.60;;;6.30;73.60;;;;;;5011740;28;20065;-72
2023/12/30 04:02:53;;;;;;;14.80;2.87;;;6.30;73.60;;;;;;5017689;28;20501;-72
2023/12/30 04:05:19;;;;;;;22.03;3.77;;;6.30;73.90;;;;;;5015162;28;20100;-71
2023/12/30 04:07:45;;;;;;;20.70;3.37;;;6.30;74.00;;;;;;5042039;28;20073;-72
2023/12/30 04:10:12;;;;;;;21.00;3.80;;;6.30;74.00;;;;;;5024585;28;20103;-71
2023/12/30 04:12:38;;;;;;;20.47;3.50;;;6.30;74.30;;;;;;5025417;28;20057;-71
2023/12/30 04:15:06;;;;;;;17.17;3.43;;;6.20;74.20;;;;;;5014521;28;20378;-74
2023/12/30 04:17:31;;;;;;;21.53;3.70;;;6.20;74.40;;;;;;5013772;28;20049;-70
2023/12/30 04:19:57;;;;;;;15.97;3.50;;;6.10;74.40;;;;;;5024627;28;20041;-71
2023/12/30 04:22:25;;;;;;;18.50;3.03;;;6.10;74.40;;;;;;5005813;28;20065;-71
2023/12/30 04:24:51;;;;;;;25.80;3.83;;;6.10;74.60;;;;;;5024337;28;20500;-71
2023/12/30 04:27:17;;;;;;;16.83;2.73;;;6.10;74.60;;;;;;5020172;28;20054;-71
2023/12/30 04:29:43;;;;;;;21.77;3.30;;;6.20;74.70;;;;;;5026370;28;20064;-71
2023/12/30 04:32:09;;;;;;;22.40;4.20;;;6.20;74.60;;;;;;5022974;28;20049;-72
2023/12/30 04:34:35;;;;;;;15.80;3.67;;;6.20;74.50;;;;;;5026056;28;20088;-71
2023/12/30 04:37:01;;;;;;;15.50;3.80;;;6.30;74.60;;;;;;5006766;28;20050;-71
2023/12/30 04:39:27;;;;;;;19.80;3.73;;;6.30;74.40;;;;;;5006737;28;20062;-70
2023/12/30 04:41:52;;;;;;;27.07;3.53;;;6.30;74.40;;;;;;5013681;28;20835;-71
2023/12/30 04:44:18;;;;;;;19.27;3.00;;;6.30;74.30;;;;;;5006224;28;20508;-71
2023/12/30 04:46:44;;;;;;;27.00;3.87;;;6.30;74.40;;;;;;5006007;28;20081;-70
2023/12/30 04:49:11;;;;;;;19.20;3.40;;;6.30;74.50;;;;;;5024652;28;20488;-72
2023/12/30 04:51:37;;;;;;;16.63;3.00;;;6.30;74.50;;;;;;5012056;28;20065;-73
2023/12/30 04:54:03;;;;;;;19.67;3.17;;;6.30;74.50;;;;;;5007986;28;20053;-71
2023/12/30 04:56:29;;;;;;;13.27;3.40;;;6.30;74.40;;;;;;5021032;28;20064;-70
2023/12/30 04:58:56;;;;;;;15.13;3.23;;;6.30;74.40;;;;;;5006848;28;20058;-72
2023/12/30 05:01:22;;;;;;;13.17;3.37;;;6.30;74.40;;;;;;5006004;28;20042;-71
2023/12/30 05:03:47;;;;;;;18.37;3.40;;;6.30;74.50;;;;;;5020910;28;20111;-71
2023/12/30 05:06:23;;;;;;;14.73;3.20;;;6.30;74.60;;;;;;5023279;28;20116;-71
2023/12/30 05:08:53;;;;;;;18.47;3.67;;;6.30;74.50;;;;;;5040362;28;21498;-72
2023/12/30 05:11:19;;;;;;;17.77;3.30;;;6.30;74.50;;;;;;5023867;28;20045;-71
2023/12/30 05:13:45;;;;;;;20.20;3.50;;;6.30;74.60;;;;;;5026281;28;20058;-72
2023/12/30 05:16:11;;;;;;;16.60;3.03;;;6.30;74.70;;;;;;5024391;28;20405;-71
2023/12/30 05:18:37;;;;;;;19.10;3.70;;;6.30;74.60;;;;;;5024204;28;20049;-72
2023/12/30 05:21:03;;;;;;;20.70;3.57;;;6.30;74.70;;;;;;5016392;28;20442;-71
2023/12/30 05:23:32;;;;;;;25.93;4.40;;;6.30;74.70;;;;;;5008967;28;20041;-71
2023/12/30 05:25:57;;;;;;;17.73;3.23;;;6.30;74.80;;;;;;5024982;28;20436;-71
2023/12/30 05:28:23;;;;;;;20.63;3.37;;;6.30;74.80;;;;;;5006851;28;20068;-71
2023/12/30 05:30:48;;;;;;;23.57;3.50;;;6.20;74.80;;;;;;5008075;28;20050;-72
2023/12/30 05:33:14;;;;;;;18.97;3.43;;;6.20;75.00;;;;;;5004794;28;20057;-70
2023/12/30 05:35:40;;;;;;;23.50;3.67;;;6.20;75.00;;;;;;5009380;28;20520;-73
2023/12/30 05:38:06;;;;;;;21.80;3.87;;;6.20;75.00;;;;;;5024623;28;20083;-73
2023/12/30 05:40:31;;;;;;;14.50;3.50;;;6.20;75.00;;;;;;5022168;28;20380;-71
2023/12/30 05:42:57;;;;;;;20.27;3.87;;;6.20;75.00;;;;;;5021238;28;20049;-72
2023/12/30 05:45:23;;;;;;;18.20;3.90;;;6.20;75.10;;;;;;5023071;28;20085;-73
2023/12/30 05:47:48;;;;;;;19.63;3.50;;;6.20;74.80;;;;;;5016786;28;20117;-71
2023/12/30 05:50:14;;;;;;;21.60;3.63;;;6.20;75.00;;;;;;5021283;28;20084;-71
2023/12/30 05:52:40;;;;;;;21.60;4.27;;;6.20;75.10;;;;;;5021916;28;20089;-72
2023/12/30 05:55:06;;;;;;;17.03;3.67;;;6.20;74.90;;;;;;5022035;28;20389;-72
2023/12/30 05:57:32;;;;;;;22.30;3.70;;;6.20;75.10;;;;;;5025544;28;20056;-71
2023/12/30 05:59:57;;;;;;;17.63;4.07;;;6.20;74.90;;;;;;5026365;28;20065;-71
2023/12/30 06:02:23;;;;;;;18.80;3.43;;;6.20;75.00;;;;;;5014750;28;20057;-74
2023/12/30 06:04:49;;;;;;;19.80;3.80;;;6.20;75.00;;;;;;5016707;28;20061;-71
2023/12/30 06:07:14;;;;;;;20.03;3.90;;;6.20;75.10;;;;;;5024500;28;20058;-70
2023/12/30 06:09:41;;;;;;;26.00;3.53;;;6.20;75.10;;;;;;5025426;28;20050;-71
2023/12/30 06:12:07;;;;;;;21.00;3.73;;;6.20;75.30;;;;;;5020329;28;20054;-70
2023/12/30 06:14:35;;;;;;;14.57;3.33;;;6.20;75.30;;;;;;5025999;28;20057;-70
2023/12/30 06:17:00;;;;;;;29.47;3.77;;;6.20;75.40;;;;;;5024306;28;20081;-72
2023/12/30 06:19:26;;;;;;;15.97;3.93;;;6.20;75.40;;;;;;5024500;28;20132;-72
2023/12/30 06:21:52;;;;;;;21.07;3.80;;;6.20;75.40;;;;;;5033906;28;20072;-70
2023/12/30 06:24:17;;;;;;;17.60;3.53;;;6.30;75.60;;;;;;5033233;28;20442;-73
2023/12/30 06:26:44;;;;;;;23.17;4.20;;;6.20;75.70;;;;;;5030383;28;20053;-72
2023/12/30 06:29:10;;;;;;;24.23;3.63;;;6.20;75.70;;;;;;5035316;28;20139;-71
2023/12/30 06:31:40;;;;;;;25.50;4.47;;;6.20;75.70;;;;;;5022683;28;20053;-70
2023/12/30 06:34:06;;;;;;;21.87;3.57;;;6.20;75.70;;;;;;5033052;28;20072;-71
2023/12/30 06:36:32;;;;;;;15.30;3.57;;;6.20;75.70;;;;;;5042799;28;20508;-71
2023/12/30 06:38:57;;;;;;;18.90;3.63;;;6.20;75.60;;;;;;5037830;28;20048;-71
2023/12/30 06:41:23;;;;;;;17.23;3.47;;;6.20;75.60;;;;;;5034974;28;20398;-75
2023/12/30 06:43:48;;;;;;;20.07;3.70;;;6.20;75.70;;;;;;5035291;28;20079;-70
2023/12/30 06:46:18;;;;;;;18.17;3.53;;;6.20;75.50;;;;;;5036266;28;20088;-73
2023/12/30 06:48:43;;;;;;;18.47;3.67;;;6.20;75.50;;;;;;5032168;28;20128;-71
2023/12/30 06:51:10;;;;;;;22.13;3.47;;;6.20;75.40;;;;;;5028847;28;20133;-71
2023/12/30 06:53:36;;;;;;;21.77;3.63;;;6.20;75.30;;;;;;5025634;28;20513;-71
2023/12/30 06:56:02;;;;;;;18.83;3.23;;;6.20;75.20;;;;;;5023542;28;20079;-71
2023/12/30 06:58:29;;;;;;;26.73;3.80;;;6.30;75.00;;;;;;5028516;28;20076;-71
2023/12/30 07:00:55;;;;;;;15.73;2.87;;;6.20;75.00;;;;;;5028261;28;20087;-70
2023/12/30 07:03:21;;;;;;;19.33;3.77;;;6.20;75.10;;;;;;5034725;28;20055;-74
2023/12/30 07:05:46;;;;;;;19.23;3.80;;;6.20;75.00;;;;;;5036866;28;20045;-70
2023/12/30 07:08:12;;;;;;;16.07;3.17;;;6.20;75.20;;;;;;5007000;28;20099;-70
2023/12/30 07:10:38;;;;;;;18.63;3.70;;;6.20;75.10;;;;;;5026601;28;20100;-72
2023/12/30 07:13:06;;;;;;;23.40;3.77;;;6.20;75.10;;;;;;5026954;28;20512;-71
2023/12/30 07:15:31;;;;;;;17.93;3.20;;;6.20;75.30;;;;;;5023791;28;20513;-71
2023/12/30 07:17:57;;;;;;;23.80;3.67;;;6.20;75.20;;;;;;5014511;28;20353;-71
2023/12/30 07:20:23;;;;;;;19.87;3.47;;;6.20;75.20;;;;;;5006447;28;20056;-71
2023/12/30 07:22:49;;;;;;;26.93;3.57;;;6.10;75.30;;;;;;5005833;28;20104;-70
2023/12/30 07:25:14;;;;;;;19.03;3.27;;;6.20;75.30;;;;;;4996659;28;20046;-71
2023/12/30 07:27:40;;;;;;;19.90;4.03;;;6.10;75.40;;;;;;5018859;28;20131;-73
2023/12/30 07:30:06;;;;;;;19.97;3.37;;;6.20;75.50;;;;;;4997743;28;20069;-70
2023/12/30 07:32:32;;;;;;;16.47;3.20;;;6.10;75.60;;;;;;5024478;28;20316;-71
2023/12/30 07:34:58;;;;;;;19.03;3.23;;;6.10;75.50;;;;;;5005219;28;20097;-71
2023/12/30 07:37:24;;;;;;;29.67;3.70;;;6.10;75.80;;;;;;5005670;28;20416;-71
2023/12/30 07:39:50;;;;;;;26.73;4.17;;;6.10;75.80;;;;;;5023096;28;20041;-72
2023/12/30 07:42:18;;;;;;;22.77;3.20;;;6.00;75.80;;;;;;5001954;28;20103;-70
2023/12/30 07:44:44;;;;;;;16.57;3.33;;;6.00;75.80;;;;;;5021088;28;20045;-71
2023/12/30 07:47:10;;;;;;;28.13;4.00;;;6.10;75.80;;;;;;5019476;28;20053;-70
2023/12/30 07:49:36;;;;;;;17.67;3.20;;;6.00;75.60;;;;;;5024328;28;20057;-70
2023/12/30 07:52:02;;;;;;;18.07;3.07;;;6.10;75.50;;;;;;5021567;28;20591;-71
2023/12/30 07:54:27;;;;;;;20.17;3.17;;;6.10;75.40;;;;;;5023660;28;20046;-71
2023/12/30 07:56:53;;;;;;;18.07;3.30;;;6.10;75.40;;;;;;5020008;28;20046;-70
2023/12/30 07:59:19;;;;;;;19.20;3.50;;;6.10;75.30;;;;;;5019719;28;20132;-72
2023/12/30 08:01:45;;;;;;;12.77;2.90;;;6.10;75.10;;;;;;5019461;28;20062;-72
2023/12/30 08:04:11;;;;;;;21.17;3.60;;;6.00;75.10;;;;;;5023333;28;20120;-71
2023/12/30 08:06:39;;;;;;;19.57;3.10;;;6.00;75.10;;;;;;5022887;28;20412;-70
2023/12/30 08:09:04;;;;;;;17.90;2.87;;;6.00;75.10;;;;;;5023597;28;20046;-71
2023/12/30 08:11:30;;;;;;;18.23;3.23;;;6.00;75.10;;;;;;5017325;28;20442;-72
2023/12/30 08:13:56;;;;;;;24.13;3.60;;;5.90;74.90;;;;;;5018319;28;20163;-70
2023/12/30 08:16:21;;;;;;;22.57;3.33;;;5.90;75.10;;;;;;5023420;28;20052;-72
2023/12/30 08:18:48;;;;;;;18.43;3.60;;;5.90;75.00;;;;;;5022350;28;20057;-72
2023/12/30 08:21:14;;;;;;;17.77;3.30;;;5.90;75.00;;;;;;5021724;28;20041;-71
2023/12/30 08:23:40;;;;;;;15.47;3.30;;;6.00;75.20;;;;;;5022984;28;20128;-71
2023/12/30 08:26:05;;;;;;;23.13;3.53;;;6.00;75.20;;;;;;5018664;28;20080;-71
2023/12/30 08:28:31;;;;;;;17.50;3.50;;;6.00;75.30;;;;;;5020426;28;20046;-70
2023/12/30 08:30:59;;;;;;;21.53;3.60;;;6.00;75.40;;;;;;5017617;28;20053;-71
2023/12/30 08:33:25;;;;;;;22.97;3.87;;;6.00;75.40;;;;;;5016412;28;20054;-70
2023/12/30 08:35:51;;;;;;;15.50;3.30;;;6.10;75.50;;;;;;5019730;28;20049;-71
2023/12/30 08:38:17;;;;;;;20.50;3.70;;;6.10;75.50;;;;;;5023514;28;20487;-71
2023/12/30 08:40:43;;;;;;;18.87;3.67;;;6.20;75.50;;;;;;5022567;28;20467;-71
2023/12/30 08:43:10;;;;;;;31.13;4.47;;;6.20;75.50;;;;;;5021914;28;20049;-71
2023/12/30 08:45:36;;;;;;;24.17;4.27;;;6.20;75.50;;;;;;5023294;28;20045;-73
2023/12/30 08:48:03;;;;;;;19.97;3.40;;;6.20;75.60;;;;;;5022626;28;21309;-71
2023/12/30 08:50:32;;;;;;;20.70;3.83;;;6.20;75.60;;;;;;5022562;28;20065;-71
2023/12/30 08:52:58;;;;;;;18.47;3.53;;;6.30;75.50;;;;;;5019376;28;20059;-72
2023/12/30 08:55:23;;;;;;;16.90;3.13;;;6.40;75.40;;;;;;5021473;28;20057;-71
2023/12/30 08:57:49;;;;;;;23.17;3.30;;;6.40;75.20;;;;;;5022732;28;20455;-71
2023/12/30 09:00:15;;;;;;;22.80;3.67;;;6.40;75.40;;;;;;5021800;28;20469;-72
2023/12/30 09:02:46;;;;;;;15.73;2.73;;;6.40;75.20;;;;;;5022639;28;20107;-72
2023/12/30 09:05:18;;;;;;;18.55;3.22;;;6.30;75.20;;;;;;5022361;28;20129;-74
2023/12/30 09:07:45;;;;;;;15.27;3.43;;;6.30;75.40;;;;;;5022375;28;20053;-71
2023/12/30 09:10:11;;;;;;;19.53;3.33;;;6.20;75.50;;;;;;5022221;28;20057;-72
2023/12/30 09:12:36;;;;;;;17.90;3.03;;;6.10;75.70;;;;;;5022971;28;20061;-72
2023/12/30 09:15:04;;;;;;;22.50;3.40;;;6.00;75.80;;;;;;5022219;28;20446;-74
2023/12/30 09:17:30;;;;;;;16.33;2.87;;;6.00;75.90;;;;;;5005308;28;20057;-71
2023/12/30 09:19:56;;;;;;;25.37;3.40;;;6.00;76.00;;;;;;5022854;28;20065;-72
2023/12/30 09:22:22;;;;;;;19.13;3.17;;;5.90;76.20;;;;;;5023130;28;20056;-72
2023/12/30 09:24:48;;;;;;;21.40;3.30;;;5.90;76.20;;;;;;5025973;28;20057;-72
2023/12/30 09:27:14;;;;;;;15.90;2.77;;;5.90;76.30;;;;;;5021814;28;20065;-73
2023/12/30 09:29:40;;;;;;;17.57;3.27;;;5.90;76.40;;;;;;5015640;28;20050;-73
2023/12/30 09:32:06;;;;;;;19.00;3.47;;;6.00;76.30;;;;;;5025453;28;20061;-71
2023/12/30 09:34:31;;;;;;;16.33;3.30;;;6.00;76.30;;;;;;5023339;28;20049;-75
2023/12/30 09:36:58;;;;;;;17.83;2.90;;;6.10;76.10;;;;;;5025524;28;20558;-71
2023/12/30 09:39:23;;;;;;;21.57;2.73;;;6.20;76.10;;;;;;5024012;28;20093;-73
2023/12/30 09:41:49;;;;;;;16.73;3.17;;;6.20;75.90;;;;;;5005123;28;20129;-71
2023/12/30 09:44:16;;;;;;;15.83;3.50;;;6.30;75.80;;;;;;5026507;28;20136;-72
2023/12/30 09:46:43;;;;;;;15.37;2.73;;;6.40;75.60;;;;;;5025981;28;20052;-71
2023/12/30 09:49:09;;;;;;;19.60;3.07;;;6.40;75.30;;;;;;5024851;28;20092;-74
2023/12/30 09:51:35;;;;;;;17.87;3.23;;;6.60;75.30;;;;;;5023799;28;20517;-72
2023/12/30 09:54:00;;;;;;;13.10;2.73;;;6.60;75.20;;;;;;5024660;28;20369;-72
2023/12/30 09:56:26;;;;;;;21.00;3.40;;;6.70;74.80;;;;;;5024780;28;20049;-73
2023/12/30 09:58:55;;;;;;;12.57;2.27;;;6.70;74.70;;;;;;5024397;28;20176;-72
2023/12/30 10:01:21;;;;;;;14.23;2.73;;;6.80;74.80;;;;;;5024050;28;20045;-72
2023/12/30 10:03:47;;;;;;;20.00;2.97;;;6.90;74.40;;;;;;5026174;28;20045;-73
2023/12/30 10:06:17;;;;;;;15.47;3.27;;;6.90;74.40;;;;;;5026523;28;20063;-73
2023/12/30 10:08:44;;;;;;;14.63;2.65;;;7.00;74.20;;;;;;5024099;28;20431;-72
2023/12/30 10:11:10;;;;;;;21.23;3.43;;;7.00;74.10;;;;;;5023674;28;20045;-72
2023/12/30 10:13:39;;;;;;;14.83;3.10;;;7.10;74.10;;;;;;5025913;28;20054;-74
2023/12/30 10:16:06;;;;;;;18.70;3.07;;;7.20;74.10;;;;;;5024448;28;20065;-73
2023/12/30 10:18:41;;;;;;;21.77;3.30;;;7.20;74.00;;;;;;5019526;28;20083;-71
2023/12/30 10:21:07;;;;;;;19.43;3.00;;;7.50;73.70;;;;;;5025112;28;20045;-70
2023/12/30 10:23:36;;;;;;;16.83;3.07;;;7.80;73.00;;;;;;5024050;28;20145;-71
2023/12/30 10:26:02;;;;;;;17.77;2.93;;;8.10;72.30;;;;;;5024620;28;20056;-72
2023/12/30 10:28:29;;;;;;;22.83;2.97;;;8.30;71.90;;;;;;5023902;28;20060;-72
2023/12/30 10:31:03;;;;;;;11.20;2.70;;;8.40;71.20;;;;;;5022903;28;20053;-72
2023/12/30 10:33:29;;;;;;;13.77;2.70;;;8.50;71.00;;;;;;5033930;28;20046;-72
2023/12/30 10:35:56;;;;;;;16.23;2.53;;;8.50;71.20;;;;;;5025086;28;20053;-73
2023/12/30 10:38:23;;;;;;;14.13;2.67;;;8.60;71.00;;;;;;5018513;28;20081;-72
2023/12/30 10:40:50;;;;;;;16.47;3.27;;;8.50;70.90;;;;;;5021067;28;20049;-73
2023/12/30 10:43:17;;;;;;;12.50;2.47;;;8.40;70.50;;;;;;5013418;28;20080;-72
2023/12/30 10:45:42;;;;;;;14.23;2.60;;;8.30;70.70;;;;;;5024444;28;20488;-73
2023/12/30 10:48:09;;;;;;;17.57;2.47;;;8.30;70.90;;;;;;5032785;28;20061;-73
2023/12/30 10:50:38;;;;;;;18.80;3.50;;;8.30;71.10;;;;;;5023929;28;20052;-73
2023/12/30 10:53:35;;;;;;;20.07;3.03;;;8.30;71.20;;;;;;5024150;28;20455;-73
2023/12/30 10:56:01;;;;;;;15.43;2.57;;;8.40;70.80;;;;;;5025275;28;20057;-71
2023/12/30 10:58:32;;;;;;;16.67;2.90;;;8.30;70.90;;;;;;5024754;28;20053;-71
2023/12/30 11:01:01;;;;;;;10.90;2.53;;;8.40;70.70;;;;;;5021168;28;20700;-72
2023/12/30 11:03:29;;;;;;;14.73;3.27;;;8.50;70.60;;;;;;5023684;28;20381;-75
2023/12/30 11:06:02;;;;;;;14.83;2.70;;;8.60;70.70;;;;;;5022711;28;20046;-72
2023/12/30 11:08:28;;;;;;;12.63;2.60;;;8.60;70.40;;;;;;5022897;28;20489;-75
2023/12/30 11:10:56;;;;;;;19.47;2.70;;;8.80;70.40;;;;;;5020711;28;20417;-72
2023/12/30 11:13:21;;;;;;;16.07;2.80;;;8.90;70.20;;;;;;5025097;28;20395;-72
2023/12/30 11:15:47;;;;;;;13.90;2.93;;;9.00;69.50;;;;;;5021605;28;20088;-73
2023/12/30 11:18:13;;;;;;;13.90;2.90;;;9.20;69.40;;;;;;5020478;28;20069;-73
2023/12/30 11:20:45;;;;;;;19.53;2.70;;;9.20;69.50;;;;;;5024133;28;20060;-73
2023/12/30 11:23:13;;;;;;;15.07;3.10;;;9.20;69.60;;;;;;5018891;28;20045;-73
2023/12/30 11:25:48;;;;;;;14.03;2.20;;;9.20;69.40;;;;;;5023319;28;20057;-72
2023/12/30 11:28:21;;;;;;;13.67;2.40;;;9.20;69.40;;;;;;5040195;28;20049;-74
2023/12/30 11:30:57;;;;;;;13.37;2.37;;;9.30;69.40;;;;;;5024749;28;20049;-73
2023/12/30 11:33:23;;;;;;;14.73;2.70;;;9.30;68.60;;;;;;5017532;28;20052;-73
2023/12/30 11:35:54;;;;;;;14.00;2.40;;;9.20;69.00;;;;;;5023115;28;20049;-72
2023/12/30 11:38:20;;;;;;;10.93;2.05;;;9.20;68.50;;;;;;5022266;28;20081;-71
2023/12/30 11:40:57;;;;;;;15.47;2.83;;;8.90;69.10;;;;;;5000189;28;20373;-71
2023/12/30 11:43:26;;;;;;;14.67;2.30;;;8.60;69.50;;;;;;5014911;28;20083;-71
2023/12/30 11:45:53;;;;;;;12.67;3.10;;;8.50;70.00;;;;;;5024177;28;20060;-72
2023/12/30 11:48:19;;;;;;;13.60;2.50;;;8.40;70.10;;;;;;5015925;28;20052;-73
2023/12/30 11:50:52;;;;;;;11.50;2.23;;;8.20;70.30;;;;;;5015466;28;20196;-71
2023/12/30 11:53:18;;;;;;;15.43;2.70;;;8.10;70.70;;;;;;5022691;28;20497;-71
2023/12/30 11:55:43;;;;;;;12.27;2.70;;;8.00;71.10;;;;;;5023354;28;20053;-72
2023/12/30 11:58:09;;;;;;;16.93;2.90;;;8.00;71.40;;;;;;5020133;28;20100;-71
2023/12/30 12:00:35;;;;;;;14.83;2.67;;;8.20;71.20;;;;;;5016962;28;20072;-73
2023/12/30 12:03:01;;;;;;;17.97;3.17;;;8.30;71.10;;;;;;5023518;28;20176;-71
2023/12/30 12:05:26;;;;;;;11.97;2.30;;;8.20;71.00;;;;;;5017626;28;20125;-72
2023/12/30 12:07:52;;;;;;;11.93;2.50;;;8.20;71.20;;;;;;5023298;28;20477;-72
2023/12/30 12:10:18;;;;;;;15.13;2.30;;;8.10;71.50;;;;;;5017910;28;20457;-73
2023/12/30 12:12:45;;;;;;;11.90;2.40;;;8.00;71.40;;;;;;5026437;28;20049;-71
2023/12/30 12:15:12;;;;;;;15.27;2.20;;;7.80;71.60;;;;;;5013235;28;20744;-71
2023/12/30 12:17:38;;;;;;;14.20;2.47;;;7.80;72.00;;;;;;5017483;28;20046;-74
2023/12/30 12:20:07;;;;;;;10.53;2.30;;;7.60;72.10;;;;;;5022067;28;20104;-73
2023/12/30 12:22:33;;;;;;;16.30;2.73;;;7.50;72.50;;;;;;5019120;28;20103;-71
2023/12/30 12:25:01;;;;;;;14.60;2.73;;;7.40;72.90;;;;;;5018409;28;20049;-70
2023/12/30 12:27:27;;;;;;;12.20;2.50;;;7.40;73.00;;;;;;5020178;28;20049;-71
2023/12/30 12:29:55;;;;;;;21.80;2.40;;;7.40;73.30;;;;;;5015645;28;20091;-74
2023/12/30 12:32:24;;;;;;;15.40;2.77;;;7.20;73.50;;;;;;5020573;28;20053;-71
2023/12/30 12:34:51;;;;;;;15.47;2.60;;;7.20;73.70;;;;;;5017992;28;20594;-74
2023/12/30 12:37:17;;;;;;;15.23;2.60;;;7.20;73.90;;;;;;5021122;28;20057;-71
2023/12/30 12:39:46;;;;;;;16.23;2.60;;;7.00;74.20;;;;;;5022721;28;20599;-71
2023/12/30 12:42:13;;;;;;;14.87;2.63;;;7.10;74.40;;;;;;5019381;28;20042;-71
2023/12/30 12:44:39;;;;;;;13.63;2.57;;;7.10;74.50;;;;;;5033270;28;20041;-72